createdAt,value
2017-09-22T00:00:49.902Z,19.20
2017-09-22T00:03:17.374Z,19.10
2017-09-22T00:05:44.839Z,19.10
2017-09-22T00:08:12.289Z,19.10
2017-09-22T00:10:39.746Z,19.10
2017-09-22T00:13:07.206Z,19.00
2017-09-22T00:15:34.662Z,19.00
2017-09-22T00:18:02.898Z,18.90
2017-09-22T00:20:30.365Z,18.90
2017-09-22T00:22:57.815Z,18.90
2017-09-22T00:25:25.272Z,18.90
2017-09-22T00:27:52.731Z,19.00
2017-09-22T00:30:20.186Z,18.90
2017-09-22T00:32:47.656Z,18.90
2017-09-22T00:35:15.106Z,18.90
2017-09-22T00:37:42.561Z,18.80
2017-09-22T00:40:10.018Z,18.80
2017-09-22T00:42:37.485Z,18.80
2017-09-22T00:45:04.937Z,18.80
2017-09-22T00:47:32.390Z,18.80
2017-09-22T00:49:59.858Z,18.70
2017-09-22T00:52:27.342Z,18.70
2017-09-22T00:54:54.797Z,18.70
2017-09-22T00:57:22.260Z,18.70
2017-09-22T00:59:49.722Z,18.60
2017-09-22T01:02:17.954Z,18.60
2017-09-22T01:04:45.416Z,18.60
2017-09-22T01:07:12.863Z,18.70
2017-09-22T01:09:41.084Z,18.60
2017-09-22T01:12:09.323Z,18.50
2017-09-22T01:14:36.809Z,18.50
2017-09-22T01:17:04.259Z,18.50
2017-09-22T01:19:31.717Z,18.50
2017-09-22T01:21:59.161Z,18.50
2017-09-22T01:24:26.618Z,18.50
2017-09-22T01:26:54.085Z,18.40
2017-09-22T01:29:21.542Z,18.40
2017-09-22T01:31:48.991Z,18.40
2017-09-22T01:34:16.442Z,18.40
2017-09-22T01:36:43.888Z,18.30
2017-09-22T01:39:11.347Z,18.30
2017-09-22T01:41:38.799Z,18.30
2017-09-22T01:44:06.288Z,18.30
2017-09-22T01:46:33.734Z,18.30
2017-09-22T01:49:01.203Z,18.30
2017-09-22T01:51:28.657Z,18.20
2017-09-22T01:53:57.623Z,18.20
2017-09-22T01:56:25.134Z,18.20
2017-09-22T01:58:53.353Z,18.20
2017-09-22T02:01:20.824Z,18.10
2017-09-22T02:03:48.297Z,18.10
2017-09-22T02:06:15.763Z,18.10
2017-09-22T02:08:43.995Z,18.00
2017-09-22T02:11:12.221Z,18.10
2017-09-22T02:13:40.445Z,18.00
2017-09-22T02:16:08.672Z,18.10
2017-09-22T02:18:36.890Z,18.00
2017-09-22T02:21:04.350Z,18.00
2017-09-22T02:23:31.808Z,18.00
2017-09-22T02:25:59.286Z,17.90
2017-09-22T02:28:27.505Z,17.90
2017-09-22T02:30:55.811Z,17.80
2017-09-22T02:33:23.274Z,17.80
2017-09-22T02:35:50.729Z,17.80
2017-09-22T02:38:18.193Z,17.80
2017-09-22T02:40:45.661Z,17.80
2017-09-22T02:43:13.143Z,17.80
2017-09-22T02:45:40.598Z,17.80
2017-09-22T02:48:08.054Z,17.80
2017-09-22T02:50:35.510Z,17.70
2017-09-22T02:53:02.970Z,17.80
2017-09-22T02:55:30.425Z,17.70
2017-09-22T02:57:57.896Z,17.70
2017-09-22T03:00:25.346Z,17.70
2017-09-22T03:02:52.802Z,17.60
2017-09-22T03:05:20.256Z,17.60
2017-09-22T03:07:47.702Z,17.70
2017-09-22T03:10:15.171Z,17.70
2017-09-22T03:12:42.633Z,17.60
2017-09-22T03:15:10.867Z,17.50
2017-09-22T03:17:38.333Z,17.50
2017-09-22T03:20:06.562Z,17.50
2017-09-22T03:22:34.781Z,17.40
2017-09-22T03:25:02.237Z,17.40
2017-09-22T03:27:29.713Z,17.40
2017-09-22T03:29:57.169Z,17.40
2017-09-22T03:32:24.621Z,17.50
2017-09-22T03:34:52.078Z,17.50
2017-09-22T03:37:19.537Z,17.40
2017-09-22T03:39:48.364Z,17.40
2017-09-22T03:42:16.576Z,17.40
2017-09-22T03:44:44.062Z,17.40
2017-09-22T03:47:11.515Z,17.30
2017-09-22T03:49:39.729Z,17.30
2017-09-22T03:52:07.229Z,17.30
2017-09-22T03:54:34.685Z,17.30
2017-09-22T03:57:02.145Z,17.30
2017-09-22T03:59:29.598Z,17.20
2017-09-22T04:01:57.077Z,17.20
2017-09-22T04:04:24.525Z,17.20
2017-09-22T04:06:51.990Z,17.20
2017-09-22T04:09:19.447Z,17.20
2017-09-22T04:11:46.902Z,17.20
2017-09-22T04:14:14.370Z,17.10
2017-09-22T04:16:41.829Z,17.20
2017-09-22T04:19:09.293Z,17.20
2017-09-22T04:21:36.759Z,17.10
2017-09-22T04:24:04.209Z,17.20
2017-09-22T04:26:31.686Z,17.10
2017-09-22T04:28:59.138Z,17.10
2017-09-22T04:31:26.681Z,17.10
2017-09-22T04:33:54.151Z,17.10
2017-09-22T04:36:21.602Z,17.00
2017-09-22T04:38:49.058Z,17.10
2017-09-22T04:41:16.517Z,17.00
2017-09-22T04:43:43.974Z,17.00
2017-09-22T04:46:11.432Z,16.90
2017-09-22T04:48:38.890Z,17.00
2017-09-22T04:51:06.351Z,17.00
2017-09-22T04:53:33.816Z,17.00
2017-09-22T04:56:01.271Z,16.90
2017-09-22T04:58:29.538Z,17.00
2017-09-22T05:00:57.026Z,16.90
2017-09-22T05:03:24.485Z,16.90
2017-09-22T05:05:51.949Z,16.80
2017-09-22T05:08:19.426Z,16.80
2017-09-22T05:10:46.882Z,16.80
2017-09-22T05:13:14.349Z,16.90
2017-09-22T05:15:41.809Z,16.90
2017-09-22T05:18:09.258Z,16.80
2017-09-22T05:20:36.713Z,16.80
2017-09-22T05:23:04.180Z,16.80
2017-09-22T05:25:31.637Z,16.80
2017-09-22T05:27:59.089Z,16.80
2017-09-22T05:30:26.570Z,16.80
2017-09-22T05:32:54.025Z,16.80
2017-09-22T05:35:21.486Z,16.70
2017-09-22T05:40:22.701Z,16.80
2017-09-22T05:42:50.154Z,16.90
2017-09-22T05:45:17.619Z,17.00
2017-09-22T05:47:45.829Z,16.90
2017-09-22T05:50:13.293Z,16.80
2017-09-22T05:52:40.746Z,16.80
2017-09-22T05:55:08.221Z,16.90
2017-09-22T05:57:35.669Z,16.90
2017-09-22T06:00:03.140Z,16.90
2017-09-22T06:02:30.620Z,17.00
2017-09-22T06:04:58.078Z,17.00
2017-09-22T06:07:26.310Z,17.00
2017-09-22T06:09:53.762Z,17.00
2017-09-22T06:12:21.239Z,17.10
2017-09-22T06:14:48.710Z,17.10
2017-09-22T06:17:16.167Z,17.20
2017-09-22T06:19:43.627Z,17.20
2017-09-22T06:22:11.870Z,17.20
2017-09-22T06:24:39.331Z,17.20
2017-09-22T06:27:06.837Z,17.20
2017-09-22T06:29:34.281Z,17.30
2017-09-22T06:32:02.521Z,17.30
2017-09-22T06:34:29.974Z,17.30
2017-09-22T06:36:58.217Z,17.30
2017-09-22T06:39:26.433Z,17.30
2017-09-22T06:41:54.645Z,17.40
2017-09-22T06:44:22.865Z,17.40
2017-09-22T06:46:50.324Z,17.40
2017-09-22T06:49:20.304Z,17.40
2017-09-22T06:51:47.760Z,17.40
2017-09-22T06:54:15.225Z,17.50
2017-09-22T06:56:42.674Z,17.50
2017-09-22T06:59:10.135Z,17.50
2017-09-22T07:01:37.587Z,17.50
2017-09-22T07:04:05.074Z,17.60
2017-09-22T07:06:32.530Z,17.60
2017-09-22T07:08:59.988Z,17.60
2017-09-22T07:11:27.442Z,17.70
2017-09-22T07:13:54.932Z,17.70
2017-09-22T07:16:22.402Z,17.70
2017-09-22T07:18:49.852Z,17.80
2017-09-22T07:21:17.325Z,17.80
2017-09-22T07:23:45.545Z,17.90
2017-09-22T07:26:13.017Z,17.80
2017-09-22T07:28:40.473Z,18.00
2017-09-22T07:31:07.940Z,18.00
2017-09-22T07:33:35.399Z,18.00
2017-09-22T07:36:02.880Z,18.10
2017-09-22T07:38:30.337Z,18.20
2017-09-22T07:40:57.801Z,18.20
2017-09-22T07:43:25.254Z,18.20
2017-09-22T07:45:52.709Z,18.30
2017-09-22T07:48:20.162Z,18.40
2017-09-22T07:50:47.733Z,18.50
2017-09-22T07:53:15.181Z,18.60
2017-09-22T07:55:42.654Z,18.60
2017-09-22T07:58:10.865Z,18.90
2017-09-22T08:00:38.325Z,18.80
2017-09-22T08:03:05.994Z,19.00
2017-09-22T08:05:33.445Z,18.90
2017-09-22T08:08:00.901Z,18.90
2017-09-22T08:10:29.123Z,19.10
2017-09-22T08:12:56.581Z,19.10
2017-09-22T08:15:24.040Z,19.20
2017-09-22T08:17:51.501Z,19.20
2017-09-22T08:20:18.962Z,19.30
2017-09-22T08:22:47.210Z,19.20
2017-09-22T08:25:15.486Z,19.30
2017-09-22T08:27:43.714Z,19.20
2017-09-22T08:30:11.189Z,19.20
2017-09-22T08:32:38.654Z,19.30
2017-09-22T08:35:06.133Z,19.30
2017-09-22T08:37:34.349Z,19.50
2017-09-22T08:40:02.570Z,19.50
2017-09-22T08:42:30.076Z,19.50
2017-09-22T08:44:58.297Z,19.70
2017-09-22T08:47:25.761Z,19.70
2017-09-22T08:49:53.214Z,19.80
2017-09-22T08:52:20.668Z,19.90
2017-09-22T08:54:48.129Z,20.00
2017-09-22T08:57:15.600Z,20.00
2017-09-22T08:59:43.089Z,20.10
2017-09-22T09:02:11.310Z,20.30
2017-09-22T09:04:38.778Z,20.20
2017-09-22T09:07:06.233Z,20.40
2017-09-22T09:09:34.465Z,20.80
2017-09-22T09:12:02.689Z,21.30
2017-09-22T09:14:30.146Z,21.30
2017-09-22T09:16:57.595Z,21.80
2017-09-22T09:19:25.090Z,22.00
2017-09-22T09:21:52.551Z,22.00
2017-09-22T09:24:20.000Z,21.80
2017-09-22T09:26:47.473Z,21.70
2017-09-22T09:29:15.694Z,21.60
2017-09-22T09:31:43.166Z,21.60
2017-09-22T09:34:10.614Z,21.60
2017-09-22T09:36:38.078Z,21.60
2017-09-22T09:39:05.529Z,21.60
2017-09-22T09:41:33.758Z,21.80
2017-09-22T09:44:01.989Z,21.80
2017-09-22T09:46:29.469Z,21.70
2017-09-22T09:48:56.928Z,21.80
2017-09-22T09:51:24.377Z,21.70
2017-09-22T09:53:52.596Z,21.80
2017-09-22T09:56:20.073Z,21.70
2017-09-22T09:58:47.579Z,21.80
2017-09-22T10:01:14.998Z,21.80
2017-09-22T10:03:42.462Z,21.90
2017-09-22T10:06:09.917Z,22.00
2017-09-22T10:08:37.384Z,22.10
2017-09-22T10:11:05.614Z,22.30
2017-09-22T10:13:33.109Z,22.20
2017-09-22T10:16:01.326Z,23.30
2017-09-22T10:18:29.560Z,23.40
2017-09-22T10:20:57.018Z,23.40
2017-09-22T10:23:25.340Z,24.10
2017-09-22T10:25:53.553Z,24.00
2017-09-22T10:28:21.024Z,24.00
2017-09-22T10:30:48.484Z,23.80
2017-09-22T10:33:15.954Z,23.60
2017-09-22T10:35:43.409Z,23.40
2017-09-22T10:38:10.870Z,23.30
2017-09-22T10:40:38.335Z,23.20
2017-09-22T10:43:05.781Z,23.10
2017-09-22T10:45:34.010Z,23.00
2017-09-22T10:48:01.472Z,23.00
2017-09-22T10:50:28.938Z,23.00
2017-09-22T10:52:56.386Z,22.90
2017-09-22T10:55:23.872Z,22.90
2017-09-22T10:57:51.328Z,22.90
2017-09-22T11:00:18.824Z,23.00
2017-09-22T11:02:46.274Z,23.00
2017-09-22T11:05:13.726Z,23.00
2017-09-22T11:07:42.147Z,23.10
2017-09-22T11:10:10.353Z,23.60
2017-09-22T11:12:37.817Z,23.60
2017-09-22T11:15:05.274Z,24.60
2017-09-22T11:17:32.747Z,25.00
2017-09-22T11:20:00.941Z,26.00
2017-09-22T11:22:28.401Z,26.00
2017-09-22T11:24:55.862Z,26.60
2017-09-22T11:27:23.315Z,26.80
2017-09-22T11:29:50.765Z,27.40
2017-09-22T11:32:18.230Z,27.80
2017-09-22T11:34:45.677Z,27.40
2017-09-22T11:37:13.146Z,27.00
2017-09-22T11:39:40.615Z,26.70
2017-09-22T11:42:08.839Z,26.20
2017-09-22T11:44:36.300Z,26.20
2017-09-22T11:47:03.769Z,26.00
2017-09-22T11:49:31.236Z,25.90
2017-09-22T11:51:58.693Z,25.60
2017-09-22T11:54:26.166Z,25.40
2017-09-22T11:56:53.617Z,25.30
2017-09-22T11:59:21.070Z,25.20
2017-09-22T12:01:48.522Z,25.10
2017-09-22T12:04:15.984Z,25.10
2017-09-22T12:06:43.434Z,25.00
2017-09-22T12:09:10.891Z,24.90
2017-09-22T12:11:38.365Z,24.90
2017-09-22T12:14:05.838Z,25.00
2017-09-22T12:16:33.281Z,25.00
2017-09-22T12:19:00.748Z,25.10
2017-09-22T12:21:28.967Z,25.50
2017-09-22T12:23:57.190Z,26.00
2017-09-22T12:26:25.417Z,26.70
2017-09-22T12:28:52.860Z,26.60
2017-09-22T12:31:20.322Z,27.40
2017-09-22T12:33:47.766Z,28.00
2017-09-22T12:36:15.221Z,28.60
2017-09-22T12:38:42.690Z,29.20
2017-09-22T12:41:10.164Z,29.40
2017-09-22T12:43:37.606Z,29.50
2017-09-22T12:46:05.054Z,29.70
2017-09-22T12:48:32.497Z,29.80
2017-09-22T12:50:59.961Z,29.40
2017-09-22T12:53:27.413Z,29.40
2017-09-22T12:55:54.871Z,29.70
2017-09-22T12:58:22.333Z,30.10
2017-09-22T13:00:49.790Z,30.30
2017-09-22T13:03:17.243Z,30.00
2017-09-22T13:05:44.689Z,29.70
2017-09-22T13:08:12.919Z,30.00
2017-09-22T13:10:40.357Z,30.00
2017-09-22T13:13:07.816Z,30.30
2017-09-22T13:15:35.270Z,30.30
2017-09-22T13:18:02.738Z,29.80
2017-09-22T13:20:30.181Z,29.60
2017-09-22T13:22:57.642Z,29.80
2017-09-22T13:25:25.098Z,29.80
2017-09-22T13:27:52.569Z,29.70
2017-09-22T13:30:20.036Z,29.80
2017-09-22T13:32:47.490Z,29.50
2017-09-22T13:35:14.973Z,29.20
2017-09-22T13:37:42.422Z,28.90
2017-09-22T13:40:09.890Z,28.70
2017-09-22T13:42:37.342Z,29.10
2017-09-22T13:45:04.797Z,29.40
2017-09-22T13:47:32.245Z,29.60
2017-09-22T13:49:59.702Z,29.80
2017-09-22T13:52:27.154Z,29.90
2017-09-22T13:54:54.608Z,30.00
2017-09-22T13:57:22.062Z,30.00
2017-09-22T13:59:49.512Z,30.00
2017-09-22T14:02:17.722Z,29.90
2017-09-22T14:04:45.181Z,29.90
2017-09-22T14:07:12.618Z,29.90
2017-09-22T14:09:40.069Z,29.90
2017-09-22T14:12:07.514Z,29.90
2017-09-22T14:14:35.778Z,29.90
2017-09-22T14:17:03.233Z,30.00
2017-09-22T14:19:30.690Z,30.10
2017-09-22T14:21:58.151Z,30.00
2017-09-22T14:24:25.596Z,30.00
2017-09-22T14:26:53.042Z,30.00
2017-09-22T14:29:20.486Z,29.90
2017-09-22T14:31:48.711Z,29.80
2017-09-22T14:34:16.177Z,29.80
2017-09-22T14:36:43.641Z,29.70
2017-09-22T14:39:11.082Z,29.60
2017-09-22T14:41:38.538Z,29.40
2017-09-22T14:44:06.019Z,28.90
2017-09-22T14:46:33.454Z,28.60
2017-09-22T14:49:00.901Z,28.20
2017-09-22T14:51:28.382Z,28.00
2017-09-22T14:53:55.837Z,27.70
2017-09-22T14:56:23.305Z,27.60
2017-09-22T14:58:50.751Z,27.40
2017-09-22T15:01:18.208Z,27.30
2017-09-22T15:03:46.431Z,27.00
2017-09-22T15:06:13.869Z,26.90
2017-09-22T15:08:42.094Z,26.80
2017-09-22T15:11:09.550Z,26.80
2017-09-22T15:13:37.005Z,26.70
2017-09-22T15:16:04.466Z,26.50
2017-09-22T15:18:31.915Z,26.40
2017-09-22T15:20:59.373Z,26.30
2017-09-22T15:23:26.932Z,26.20
2017-09-22T15:25:54.394Z,26.20
2017-09-22T15:28:21.854Z,26.00
2017-09-22T15:30:49.306Z,25.90
2017-09-22T15:33:16.763Z,25.80
2017-09-22T15:35:44.222Z,25.70
2017-09-22T15:38:11.687Z,25.60
2017-09-22T15:40:39.150Z,25.50
2017-09-22T15:43:06.613Z,25.40
2017-09-22T15:45:34.070Z,25.40
2017-09-22T15:48:02.282Z,25.20
2017-09-22T15:50:29.738Z,25.20
2017-09-22T15:52:57.192Z,25.10
2017-09-22T15:55:24.651Z,25.00
2017-09-22T15:57:52.100Z,25.00
2017-09-22T16:00:19.557Z,24.80
2017-09-22T16:02:47.008Z,24.80
2017-09-22T16:05:14.479Z,24.70
2017-09-22T16:07:41.934Z,24.60
2017-09-22T16:10:09.395Z,24.60
2017-09-22T16:12:36.850Z,24.50
2017-09-22T16:15:04.331Z,24.50
2017-09-22T16:17:31.779Z,24.40
2017-09-22T16:19:59.991Z,24.30
2017-09-22T16:22:27.446Z,24.30
2017-09-22T16:24:54.904Z,24.30
2017-09-22T16:27:22.361Z,23.90
2017-09-22T16:29:49.822Z,23.50
2017-09-22T16:32:17.277Z,23.20
2017-09-22T16:34:45.498Z,23.00
2017-09-22T16:37:12.955Z,22.90
2017-09-22T16:39:40.415Z,22.80
2017-09-22T16:42:07.878Z,22.70
2017-09-22T16:44:36.100Z,22.60
2017-09-22T16:47:04.331Z,22.50
2017-09-22T16:49:32.546Z,22.40
2017-09-22T16:52:00.769Z,22.40
2017-09-22T16:54:28.231Z,22.40
2017-09-22T16:56:55.698Z,22.30
2017-09-22T16:59:23.920Z,22.10
2017-09-22T17:01:51.371Z,22.10
2017-09-22T17:04:18.867Z,22.10
2017-09-22T17:06:46.282Z,22.00
2017-09-22T17:09:14.506Z,21.80
2017-09-22T17:11:41.966Z,21.70
2017-09-22T17:14:09.445Z,21.90
2017-09-22T17:16:36.902Z,22.00
2017-09-22T17:19:05.137Z,22.40
2017-09-22T17:21:32.584Z,22.40
2017-09-22T17:24:00.049Z,22.50
2017-09-22T17:26:28.261Z,22.70
2017-09-22T17:28:56.636Z,22.70
2017-09-22T17:31:24.133Z,22.70
2017-09-22T17:33:51.593Z,22.80
2017-09-22T17:36:19.052Z,22.80
2017-09-22T17:38:46.502Z,22.80
2017-09-22T17:41:13.953Z,22.80
2017-09-22T17:43:41.410Z,22.80
2017-09-22T17:46:08.862Z,22.80
2017-09-22T17:48:36.305Z,22.80
2017-09-22T17:51:04.530Z,22.80
2017-09-22T17:53:31.982Z,22.80
2017-09-22T17:55:59.442Z,22.80
2017-09-22T17:58:26.898Z,22.80
2017-09-22T18:00:54.355Z,22.80
2017-09-22T18:03:21.811Z,22.80
2017-09-22T18:08:23.909Z,22.80
2017-09-22T18:10:51.361Z,22.80
2017-09-22T18:13:19.590Z,22.70
2017-09-22T18:15:47.061Z,22.70
2017-09-22T18:18:14.511Z,22.70
2017-09-22T18:20:41.965Z,22.70
2017-09-22T18:23:09.406Z,22.70
2017-09-22T18:25:37.625Z,22.60
2017-09-22T18:28:05.079Z,22.60
2017-09-22T18:30:32.534Z,22.60
2017-09-22T18:32:59.996Z,22.60
2017-09-22T18:35:27.449Z,22.60
2017-09-22T18:37:54.906Z,22.60
2017-09-22T18:40:22.412Z,22.60
2017-09-22T18:42:49.856Z,22.50
2017-09-22T18:45:18.810Z,22.50
2017-09-22T18:47:46.275Z,22.50
2017-09-22T18:50:13.725Z,22.40
2017-09-22T18:52:41.186Z,22.50
2017-09-22T18:55:08.647Z,22.40
2017-09-22T18:57:36.123Z,22.40
2017-09-22T19:00:04.334Z,22.40
2017-09-22T19:02:32.558Z,22.40
2017-09-22T19:05:00.009Z,22.40
2017-09-22T19:07:27.474Z,22.40
2017-09-22T19:09:54.926Z,22.40
2017-09-22T19:12:22.394Z,22.30
2017-09-22T19:14:50.611Z,22.30
2017-09-22T19:17:18.843Z,22.30
2017-09-22T19:19:46.303Z,22.30
2017-09-22T19:22:13.797Z,22.30
2017-09-22T19:24:42.030Z,22.20
2017-09-22T19:27:09.489Z,22.20
2017-09-22T19:29:36.946Z,22.20
2017-09-22T19:32:04.414Z,22.20
2017-09-22T19:34:31.945Z,22.20
2017-09-22T19:37:00.174Z,22.20
2017-09-22T19:39:27.625Z,22.20
2017-09-22T19:41:55.074Z,22.20
2017-09-22T19:44:22.533Z,22.10
2017-09-22T19:46:49.987Z,22.10
2017-09-22T19:49:17.434Z,22.10
2017-09-22T19:51:44.881Z,22.10
2017-09-22T19:54:12.353Z,22.10
2017-09-22T19:56:39.798Z,22.10
2017-09-22T19:59:07.275Z,22.10
2017-09-22T20:01:34.726Z,22.10
2017-09-22T20:04:03.259Z,22.00
2017-09-22T20:06:30.770Z,22.00
2017-09-22T20:08:58.994Z,22.00
2017-09-22T20:11:26.459Z,22.00
2017-09-22T20:13:53.922Z,22.00
2017-09-22T20:16:21.372Z,22.00
2017-09-22T20:18:48.843Z,22.00
2017-09-22T20:21:16.337Z,22.00
2017-09-22T20:23:43.781Z,22.00
2017-09-22T20:26:11.248Z,22.00
2017-09-22T20:28:38.693Z,21.90
2017-09-22T20:31:06.147Z,21.90
2017-09-22T20:33:33.603Z,21.90
2017-09-22T20:36:01.071Z,21.90
2017-09-22T20:38:28.517Z,21.90
2017-09-22T20:40:55.974Z,21.90
2017-09-22T20:43:23.433Z,21.90
2017-09-22T20:45:50.885Z,21.90
2017-09-22T20:48:18.358Z,21.90
2017-09-22T20:50:45.849Z,21.90
2017-09-22T20:53:13.369Z,21.80
2017-09-22T20:55:40.827Z,21.80
2017-09-22T21:00:42.793Z,21.80
2017-09-22T21:03:10.257Z,21.80
2017-09-22T21:05:37.709Z,21.80
2017-09-22T21:08:05.162Z,21.80
2017-09-22T21:10:32.615Z,21.80
2017-09-22T21:13:00.070Z,21.80
2017-09-22T21:15:28.634Z,21.80
2017-09-22T21:17:56.858Z,21.70
2017-09-22T21:20:24.324Z,21.70
2017-09-22T21:22:51.798Z,21.70
2017-09-22T21:25:20.026Z,21.70
2017-09-22T21:27:47.487Z,21.70
2017-09-22T21:30:14.937Z,21.70
2017-09-22T21:32:42.398Z,21.70
2017-09-22T21:35:09.849Z,21.70
2017-09-22T21:37:37.307Z,21.70
2017-09-22T21:40:04.765Z,21.60
2017-09-22T21:42:32.229Z,21.60
2017-09-22T21:44:59.678Z,21.60
2017-09-22T21:47:27.144Z,21.60
2017-09-22T21:49:54.594Z,21.60
2017-09-22T21:52:22.055Z,21.60
2017-09-22T21:54:49.506Z,21.50
2017-09-22T21:57:16.967Z,21.50
2017-09-22T21:59:44.419Z,21.50
2017-09-22T22:02:11.877Z,21.50
2017-09-22T22:04:45.030Z,21.50
2017-09-22T22:10:10.806Z,21.50
2017-09-22T22:12:38.286Z,21.40
2017-09-22T22:15:05.742Z,21.40
2017-09-22T22:17:33.221Z,21.40
2017-09-22T22:20:00.713Z,21.40
2017-09-22T22:22:28.906Z,21.40
2017-09-22T22:24:56.367Z,21.40
2017-09-22T22:27:24.580Z,21.30
2017-09-22T22:29:52.090Z,21.30
2017-09-22T22:32:19.552Z,21.30
2017-09-22T22:34:47.009Z,21.30
2017-09-22T22:37:14.462Z,21.30
2017-09-22T22:39:41.934Z,21.30
2017-09-22T22:42:09.421Z,21.30
2017-09-22T22:44:36.899Z,21.30
2017-09-22T22:47:04.374Z,21.20
2017-09-22T22:49:31.869Z,21.20
2017-09-22T22:52:00.080Z,21.20
2017-09-22T22:54:28.317Z,21.20
2017-09-22T22:56:55.774Z,21.20
2017-09-22T22:59:23.230Z,21.10
2017-09-22T23:01:50.718Z,21.10
2017-09-22T23:04:18.181Z,21.10
2017-09-22T23:06:46.392Z,21.10
2017-09-22T23:09:13.853Z,21.10
2017-09-22T23:11:42.073Z,21.10
2017-09-22T23:14:09.510Z,21.10
2017-09-22T23:16:36.970Z,21.10
2017-09-22T23:19:05.173Z,21.10
2017-09-22T23:21:32.640Z,21.00
2017-09-22T23:24:01.595Z,21.00
2017-09-22T23:26:30.966Z,21.00
2017-09-22T23:28:58.417Z,21.00
2017-09-22T23:31:26.641Z,21.00
2017-09-22T23:33:54.126Z,20.90
2017-09-22T23:36:21.594Z,20.90
2017-09-22T23:38:49.853Z,20.90
2017-09-22T23:41:17.310Z,20.90
2017-09-22T23:43:44.825Z,20.90
2017-09-22T23:46:12.302Z,20.90
2017-09-22T23:48:39.776Z,20.90
2017-09-22T23:51:07.237Z,20.90
2017-09-22T23:53:34.713Z,20.90
2017-09-22T23:56:02.173Z,20.80
2017-09-22T23:58:29.615Z,20.90
